Time;durP1;ratioP1;P1;durP2;ratioP2;P2;SDS_P1;SDS_P2;PMS_P1;PMS_P2;Temp;Humidity;BMP_temperature;BMP_pressure;BME280_temperature;BME280_humidity;BME280_pressure;Samples;Min_cycle;Max_cycle;Signal;HPM_P1;HPM_P2
2022/10/15 00:01:09;;;;;;;424.58;47.20;;;12.00;99.90;;;;;;5030408;28;20033;-64
2022/10/15 00:03:36;;;;;;;327.23;45.53;;;12.00;99.90;;;;;;5024076;28;20499;-64
2022/10/15 00:06:14;;;;;;;367.50;45.67;;;12.00;99.90;;;;;;5029110;28;20065;-63
2022/10/15 00:08:40;;;;;;;419.63;46.25;;;12.10;99.90;;;;;;5029558;28;20520;-63
2022/10/15 00:11:12;;;;;;;413.05;44.72;;;12.10;99.90;;;;;;5023937;28;20037;-64
2022/10/15 00:13:39;;;;;;;401.10;47.10;;;12.10;99.90;;;;;;5030194;28;20080;-64
2022/10/15 00:16:08;;;;;;;539.83;50.80;;;12.10;99.90;;;;;;5030714;28;20526;-64
2022/10/15 00:18:34;;;;;;;416.75;44.92;;;12.10;99.90;;;;;;5023284;28;20059;-64
2022/10/15 00:20:59;;;;;;;458.45;47.30;;;12.10;99.90;;;;;;5011774;28;20071;-64
2022/10/15 00:23:25;;;;;;;395.55;45.90;;;12.20;99.90;;;;;;5030455;28;20069;-64
2022/10/15 00:26:10;;;;;;;495.88;48.08;;;12.10;99.90;;;;;;5017979;28;20037;-63
2022/10/15 00:28:35;;;;;;;442.38;46.47;;;12.20;99.90;;;;;;5024973;28;20452;-64
2022/10/15 00:31:04;;;;;;;407.67;46.42;;;12.10;99.90;;;;;;5022462;28;20128;-63
2022/10/15 00:33:30;;;;;;;436.27;48.00;;;12.10;99.90;;;;;;5029450;28;20038;-64
2022/10/15 00:36:00;;;;;;;452.10;47.00;;;12.10;99.90;;;;;;5021069;28;20084;-64
2022/10/15 00:38:26;;;;;;;467.77;47.67;;;12.10;99.90;;;;;;5023602;28;20108;-63
2022/10/15 00:40:52;;;;;;;321.23;47.08;;;12.10;99.90;;;;;;5029970;28;20129;-63
2022/10/15 00:43:45;;;;;;;404.98;48.58;;;12.00;99.90;;;;;;5026121;28;20087;-64
2022/10/15 00:46:35;;;;;;;248.13;44.50;;;12.10;99.90;;;;;;5030564;28;20053;-62
2022/10/15 00:49:08;;;;;;;227.90;41.50;;;12.10;99.90;;;;;;5030946;28;20120;-63
2022/10/15 00:51:41;;;;;;;200.43;42.95;;;12.00;99.90;;;;;;5025904;28;20084;-64
2022/10/15 00:54:08;;;;;;;190.25;41.08;;;12.00;99.90;;;;;;5025759;28;20049;-63
2022/10/15 00:56:36;;;;;;;226.18;42.00;;;11.90;99.90;;;;;;5030794;28;20087;-64
2022/10/15 00:59:04;;;;;;;377.83;46.35;;;12.00;99.90;;;;;;5028237;28;20037;-63
2022/10/15 01:01:30;;;;;;;310.23;42.13;;;11.90;99.90;;;;;;5025681;28;20076;-64
2022/10/15 01:03:56;;;;;;;405.48;45.53;;;11.90;99.90;;;;;;5030625;28;20144;-63
2022/10/15 01:06:23;;;;;;;385.67;44.25;;;11.90;99.90;;;;;;5010648;28;20128;-64
2022/10/15 01:08:49;;;;;;;388.33;44.55;;;11.90;99.90;;;;;;5008921;28;20060;-63
2022/10/15 01:11:35;;;;;;;456.75;47.90;;;12.00;99.90;;;;;;5029364;28;20099;-63
2022/10/15 01:14:15;;;;;;;240.05;39.05;;;12.00;99.90;;;;;;5034002;28;20419;-64
2022/10/15 01:17:05;;;;;;;378.90;41.83;;;12.00;99.90;;;;;;5010894;28;20523;-63
2022/10/15 01:19:42;;;;;;;374.58;39.25;;;12.00;99.90;;;;;;5030642;28;20176;-64
2022/10/15 01:22:52;;;;;;;298.50;38.83;;;12.00;99.90;;;;;;5034045;28;20045;-64
2022/10/15 01:26:08;;;;;;;235.40;38.35;;;12.00;99.90;;;;;;5030829;28;20069;-64
2022/10/15 01:28:43;;;;;;;345.42;40.58;;;12.00;99.90;;;;;;4999979;28;20045;-64
2022/10/15 01:31:36;;;;;;;378.23;43.15;;;11.90;99.90;;;;;;5034077;28;20049;-64
2022/10/15 01:34:05;;;;;;;224.70;39.25;;;11.80;99.90;;;;;;5027912;28;20203;-64
2022/10/15 01:36:36;;;;;;;317.13;42.42;;;11.80;99.90;;;;;;5027040;28;20040;-63
2022/10/15 01:39:41;;;;;;;270.13;39.05;;;11.80;99.90;;;;;;5033156;28;20055;-64
2022/10/15 01:42:15;;;;;;;210.52;38.67;;;11.80;99.90;;;;;;5024287;28;20560;-63
2022/10/15 01:44:51;;;;;;;201.70;36.53;;;11.80;99.90;;;;;;5033727;28;20576;-64
2022/10/15 01:47:25;;;;;;;221.52;37.75;;;11.70;99.90;;;;;;5033887;28;20041;-64
2022/10/15 01:49:53;;;;;;;196.13;37.50;;;11.80;99.90;;;;;;5029726;28;20052;-64
2022/10/15 01:52:23;;;;;;;184.55;37.45;;;11.80;99.90;;;;;;5033001;28;20056;-64
2022/10/15 01:54:50;;;;;;;153.95;36.10;;;11.90;99.90;;;;;;5033537;28;20117;-63
2022/10/15 01:57:18;;;;;;;171.77;37.13;;;11.80;99.90;;;;;;5034061;28;20048;-65
2022/10/15 01:59:44;;;;;;;171.45;37.70;;;11.80;99.90;;;;;;5023700;28;20037;-64
2022/10/15 02:02:09;;;;;;;153.45;37.17;;;11.80;99.90;;;;;;5032662;28;20052;-64
2022/10/15 02:04:35;;;;;;;155.32;36.47;;;11.90;99.90;;;;;;5033872;28;20482;-64
2022/10/15 02:07:08;;;;;;;131.95;34.72;;;11.90;99.90;;;;;;5022180;28;20476;-64
2022/10/15 02:09:39;;;;;;;145.60;35.50;;;11.90;99.90;;;;;;5029965;28;20088;-64
2022/10/15 02:12:33;;;;;;;132.88;34.90;;;11.90;99.90;;;;;;5033087;28;20045;-63
2022/10/15 02:15:07;;;;;;;111.50;33.38;;;11.90;99.90;;;;;;5033935;28;20045;-63
2022/10/15 02:17:59;;;;;;;126.38;33.85;;;11.90;99.90;;;;;;5028987;28;20515;-64
2022/10/15 02:20:30;;;;;;;107.75;31.95;;;11.90;99.90;;;;;;5020068;28;20504;-64
2022/10/15 02:23:06;;;;;;;150.13;35.72;;;11.90;99.90;;;;;;5023891;28;20045;-63
2022/10/15 02:25:34;;;;;;;142.15;35.30;;;11.90;99.90;;;;;;5020274;28;20155;-64
2022/10/15 02:28:02;;;;;;;103.40;32.38;;;11.90;99.90;;;;;;5032536;28;20116;-64
2022/10/15 02:30:28;;;;;;;118.97;34.15;;;11.90;99.90;;;;;;5033693;28;20075;-63
2022/10/15 02:32:56;;;;;;;98.80;31.63;;;11.90;99.90;;;;;;5024751;28;20042;-64
2022/10/15 02:35:23;;;;;;;128.25;33.65;;;11.90;99.90;;;;;;5024698;28;20496;-64
2022/10/15 02:37:52;;;;;;;101.13;31.73;;;11.90;99.90;;;;;;5033023;28;20373;-64
2022/10/15 02:40:21;;;;;;;114.25;33.42;;;11.90;99.90;;;;;;5020746;28;20034;-63
2022/10/15 02:42:49;;;;;;;96.30;31.90;;;11.90;99.90;;;;;;5031682;28;20049;-64
2022/10/15 02:45:15;;;;;;;100.43;29.95;;;11.90;99.90;;;;;;5032663;28;20415;-64
2022/10/15 02:47:40;;;;;;;90.43;30.23;;;11.90;99.90;;;;;;5033010;28;20037;-64
2022/10/15 02:50:06;;;;;;;104.55;31.42;;;11.90;99.90;;;;;;5025863;28;20037;-64
2022/10/15 02:52:32;;;;;;;121.25;33.75;;;11.90;99.90;;;;;;5030162;28;20091;-63
2022/10/15 02:54:57;;;;;;;111.10;32.25;;;11.90;99.90;;;;;;5032798;28;20095;-64
2022/10/15 02:57:23;;;;;;;102.13;32.40;;;11.90;99.90;;;;;;5026662;28;20030;-64
2022/10/15 02:59:48;;;;;;;108.97;32.83;;;11.90;99.90;;;;;;5032059;28;20033;-64
2022/10/15 03:02:14;;;;;;;100.38;31.75;;;11.90;99.90;;;;;;5031040;28;20041;-63
2022/10/15 03:04:39;;;;;;;109.13;31.95;;;11.90;99.90;;;;;;5025108;28;20037;-64
2022/10/15 03:07:05;;;;;;;105.40;32.38;;;11.90;99.90;;;;;;5022991;28;20104;-64
2022/10/15 03:09:31;;;;;;;80.28;30.88;;;12.00;99.90;;;;;;5032394;28;20064;-63
2022/10/15 03:11:56;;;;;;;103.88;32.90;;;12.00;99.90;;;;;;5029247;28;20071;-64
2022/10/15 03:14:22;;;;;;;89.82;31.42;;;11.90;99.90;;;;;;5027473;28;20507;-64
2022/10/15 03:16:47;;;;;;;78.07;30.23;;;11.90;99.90;;;;;;5027697;28;20051;-63
2022/10/15 03:19:13;;;;;;;104.55;32.42;;;12.00;99.90;;;;;;5032206;28;20034;-64
2022/10/15 03:21:39;;;;;;;88.80;31.17;;;11.90;99.90;;;;;;5025590;28;20124;-63
2022/10/15 03:24:05;;;;;;;94.18;31.40;;;12.00;99.90;;;;;;5021416;28;20516;-64
2022/10/15 03:26:30;;;;;;;90.53;31.60;;;11.90;99.90;;;;;;5023724;28;20076;-65
2022/10/15 03:28:56;;;;;;;99.03;32.88;;;11.90;99.90;;;;;;5028546;28;20482;-63
2022/10/15 03:31:21;;;;;;;81.18;30.15;;;11.90;99.90;;;;;;5029635;28;20041;-64
2022/10/15 03:33:47;;;;;;;72.45;29.52;;;12.00;99.90;;;;;;5031757;28;20037;-63
2022/10/15 03:36:13;;;;;;;84.63;30.17;;;11.90;99.90;;;;;;5031288;28;20036;-63
2022/10/15 03:38:38;;;;;;;91.53;30.90;;;11.90;99.90;;;;;;5027128;28;20041;-62
2022/10/15 03:41:04;;;;;;;77.22;29.80;;;11.90;99.90;;;;;;5029825;28;20044;-64
2022/10/15 03:43:30;;;;;;;78.28;31.00;;;12.00;99.90;;;;;;5031906;28;20519;-63
2022/10/15 03:45:59;;;;;;;88.18;32.00;;;12.00;99.90;;;;;;5026636;28;20040;-63
2022/10/15 03:48:25;;;;;;;81.82;31.50;;;11.90;99.90;;;;;;5023828;28;20507;-62
2022/10/15 03:50:50;;;;;;;86.20;31.30;;;11.90;99.90;;;;;;5013566;28;20121;-63
2022/10/15 03:53:16;;;;;;;83.93;30.63;;;11.90;99.90;;;;;;5031001;28;20099;-63
2022/10/15 03:55:41;;;;;;;83.72;31.08;;;11.80;99.90;;;;;;5030973;28;20048;-63
2022/10/15 03:58:07;;;;;;;76.88;30.73;;;11.80;99.90;;;;;;5028571;28;20107;-64
2022/10/15 04:00:33;;;;;;;77.90;29.60;;;11.80;99.90;;;;;;5030880;28;20403;-64
2022/10/15 04:02:58;;;;;;;76.03;29.88;;;11.80;99.90;;;;;;5024235;28;20495;-64
2022/10/15 04:05:24;;;;;;;73.35;31.00;;;11.80;99.90;;;;;;5019431;28;20116;-63
2022/10/15 04:07:50;;;;;;;75.97;30.77;;;11.80;99.90;;;;;;5027213;28;20451;-63
2022/10/15 04:10:15;;;;;;;81.38;31.77;;;11.80;99.90;;;;;;5030114;28;20466;-64
2022/10/15 04:12:41;;;;;;;84.32;32.88;;;11.80;99.90;;;;;;5031092;28;20040;-64
2022/10/15 04:15:07;;;;;;;78.82;31.35;;;11.80;99.90;;;;;;5029127;28;20511;-64
2022/10/15 04:17:32;;;;;;;83.40;32.90;;;11.70;99.90;;;;;;5018089;28;20108;-63
2022/10/15 04:19:58;;;;;;;84.80;33.35;;;11.70;99.90;;;;;;5023987;28;20495;-64
2022/10/15 04:22:24;;;;;;;79.70;31.50;;;11.60;99.90;;;;;;5030397;28;20036;-64
2022/10/15 04:24:49;;;;;;;93.30;33.20;;;11.60;99.90;;;;;;5030947;28;20045;-64
2022/10/15 04:27:15;;;;;;;77.97;30.73;;;11.50;99.90;;;;;;5031096;28;20041;-63
2022/10/15 04:29:40;;;;;;;74.55;30.30;;;11.50;99.90;;;;;;5025796;28;20080;-63
2022/10/15 04:32:06;;;;;;;87.45;32.25;;;11.40;99.90;;;;;;5025031;28;20064;-63
2022/10/15 04:34:32;;;;;;;86.72;32.30;;;11.30;99.90;;;;;;5031064;28;20395;-64
2022/10/15 04:36:57;;;;;;;81.10;33.00;;;11.20;99.90;;;;;;5020879;28;20083;-64
2022/10/15 04:39:23;;;;;;;78.97;32.97;;;11.10;99.90;;;;;;5028026;28;20380;-62
2022/10/15 04:41:48;;;;;;;88.63;33.25;;;11.10;99.90;;;;;;5030856;28;20042;-64
2022/10/15 04:44:14;;;;;;;84.78;34.00;;;11.10;99.90;;;;;;5031262;28;20037;-64
2022/10/15 04:46:40;;;;;;;93.70;35.47;;;11.00;99.90;;;;;;5017267;28;20475;-63
2022/10/15 04:49:06;;;;;;;89.72;33.42;;;11.00;99.90;;;;;;5023241;28;20042;-62
2022/10/15 04:51:31;;;;;;;94.88;34.08;;;11.10;99.90;;;;;;5032549;28;20139;-63
2022/10/15 04:53:57;;;;;;;97.20;33.90;;;11.00;99.90;;;;;;5029843;28;20397;-62
2022/10/15 04:56:22;;;;;;;77.78;32.58;;;11.00;99.90;;;;;;5028950;28;20040;-65
2022/10/15 04:58:49;;;;;;;99.40;33.95;;;11.10;99.90;;;;;;5024853;28;20033;-64
2022/10/15 05:01:18;;;;;;;88.05;33.28;;;11.10;99.90;;;;;;5020853;28;20049;-64
2022/10/15 05:03:46;;;;;;;87.03;34.33;;;11.10;99.90;;;;;;5028587;28;20460;-64
2022/10/15 05:06:17;;;;;;;89.75;34.35;;;11.20;99.90;;;;;;5027614;28;20095;-62
2022/10/15 05:08:43;;;;;;;102.95;36.95;;;11.20;99.90;;;;;;5021811;28;20037;-62
2022/10/15 05:11:15;;;;;;;92.03;34.13;;;11.30;99.90;;;;;;4998059;28;20048;-63
2022/10/15 05:13:41;;;;;;;92.97;33.33;;;11.30;99.90;;;;;;5025781;28;20065;-63
2022/10/15 05:16:11;;;;;;;100.68;37.05;;;11.30;99.90;;;;;;5034628;28;20038;-64
2022/10/15 05:18:37;;;;;;;96.95;34.85;;;11.30;99.90;;;;;;5022304;28;20037;-63
2022/10/15 05:21:04;;;;;;;92.90;35.33;;;11.30;99.90;;;;;;5019977;28;20026;-64
2022/10/15 05:23:29;;;;;;;96.75;34.63;;;11.30;99.90;;;;;;5024544;28;20399;-64
2022/10/15 05:25:58;;;;;;;104.55;35.38;;;11.30;99.90;;;;;;5027782;28;20029;-64
2022/10/15 05:28:24;;;;;;;81.13;32.65;;;11.20;99.90;;;;;;5023641;28;20037;-62
2022/10/15 05:30:50;;;;;;;93.30;34.22;;;11.20;99.90;;;;;;5017950;28;20403;-64
2022/10/15 05:33:16;;;;;;;106.78;36.10;;;11.20;99.90;;;;;;5032783;28;20049;-63
2022/10/15 05:35:41;;;;;;;97.72;33.50;;;11.20;99.90;;;;;;5013312;28;20456;-63
2022/10/15 05:38:07;;;;;;;96.03;34.83;;;11.20;99.90;;;;;;5024879;28;20303;-63
2022/10/15 05:40:33;;;;;;;97.18;35.38;;;11.30;99.90;;;;;;5026537;28;20087;-63
2022/10/15 05:42:58;;;;;;;95.18;34.17;;;11.20;99.90;;;;;;5027673;28;20041;-63
2022/10/15 05:45:24;;;;;;;99.07;35.45;;;11.30;99.90;;;;;;5022575;28;20120;-63
2022/10/15 05:47:54;;;;;;;94.13;32.83;;;11.30;99.90;;;;;;5027526;28;20064;-63
2022/10/15 05:50:19;;;;;;;111.30;37.58;;;11.30;99.90;;;;;;5012952;28;20041;-64
2022/10/15 05:52:45;;;;;;;102.22;35.17;;;11.40;99.90;;;;;;5032235;28;20064;-64
2022/10/15 05:55:10;;;;;;;102.13;36.78;;;11.50;99.90;;;;;;5031390;28;20107;-64
2022/10/15 05:57:36;;;;;;;102.30;35.67;;;11.40;99.90;;;;;;5033471;28;20045;-64
2022/10/15 06:00:03;;;;;;;111.60;36.20;;;11.50;99.90;;;;;;5018676;28;20056;-63
2022/10/15 06:02:29;;;;;;;107.97;36.33;;;11.40;99.90;;;;;;5032380;28;20046;-63
2022/10/15 06:04:55;;;;;;;104.72;35.33;;;11.50;99.90;;;;;;5030084;28;20468;-64
2022/10/15 06:07:20;;;;;;;109.28;37.40;;;11.60;99.90;;;;;;5023648;28;20044;-64
2022/10/15 06:09:46;;;;;;;111.30;36.10;;;11.60;99.90;;;;;;5025029;28;20492;-64
2022/10/15 06:12:12;;;;;;;111.20;36.92;;;11.60;99.90;;;;;;5013475;28;20074;-63
2022/10/15 06:14:37;;;;;;;109.45;35.80;;;11.60;99.90;;;;;;5033412;28;20037;-64
2022/10/15 06:17:03;;;;;;;102.70;35.35;;;11.60;99.90;;;;;;5022651;28;20464;-64
2022/10/15 06:19:28;;;;;;;104.82;36.28;;;11.60;99.90;;;;;;5019609;28;20037;-66
2022/10/15 06:21:54;;;;;;;108.00;37.95;;;11.70;99.90;;;;;;5023413;28;20520;-66
2022/10/15 06:24:19;;;;;;;108.68;36.55;;;11.70;99.90;;;;;;5024594;28;20033;-66
2022/10/15 06:26:45;;;;;;;106.15;37.22;;;11.70;99.90;;;;;;5032860;28;20038;-66
2022/10/15 06:29:11;;;;;;;99.20;34.33;;;11.80;99.90;;;;;;5020691;28;20511;-66
2022/10/15 06:31:36;;;;;;;112.00;36.17;;;11.80;99.90;;;;;;5026440;28;20076;-66
2022/10/15 06:34:02;;;;;;;111.32;36.20;;;11.90;99.90;;;;;;5017234;28;20037;-64
2022/10/15 06:36:27;;;;;;;103.78;34.60;;;11.90;99.90;;;;;;5018098;28;20038;-66
2022/10/15 06:38:53;;;;;;;107.70;36.50;;;11.90;99.90;;;;;;5026489;28;20048;-64
2022/10/15 06:41:19;;;;;;;98.60;35.20;;;12.00;99.90;;;;;;5022646;28;20087;-66
2022/10/15 06:43:48;;;;;;;95.88;36.05;;;12.00;99.90;;;;;;5024193;28;20041;-65
2022/10/15 06:46:13;;;;;;;95.63;37.20;;;12.00;99.90;;;;;;5032224;28;20103;-65
2022/10/15 06:48:39;;;;;;;98.68;35.95;;;12.10;99.90;;;;;;5023010;28;20042;-66
2022/10/15 06:51:05;;;;;;;98.50;34.97;;;12.00;99.90;;;;;;5023203;28;20463;-66
2022/10/15 06:53:31;;;;;;;98.38;36.55;;;12.10;99.90;;;;;;5029325;28;20101;-65
2022/10/15 06:56:01;;;;;;;98.43;37.78;;;12.10;99.90;;;;;;5025631;28;20041;-67
2022/10/15 06:58:27;;;;;;;96.40;37.15;;;12.10;99.90;;;;;;5024932;28;20072;-65
2022/10/15 07:01:00;;;;;;;94.88;35.95;;;12.20;99.90;;;;;;5029041;28;20036;-65
2022/10/15 07:03:25;;;;;;;95.07;36.50;;;12.20;99.90;;;;;;5019318;28;20061;-65
2022/10/15 07:05:51;;;;;;;95.80;37.08;;;12.30;99.90;;;;;;5007234;28;20080;-65
2022/10/15 07:08:16;;;;;;;100.00;38.08;;;12.30;99.90;;;;;;5031302;28;20044;-66
2022/10/15 07:10:42;;;;;;;100.38;37.53;;;12.30;99.90;;;;;;5025048;28;20507;-66
2022/10/15 07:13:08;;;;;;;90.88;37.60;;;12.40;99.90;;;;;;5031911;28;20069;-65
2022/10/15 07:15:33;;;;;;;104.43;38.97;;;12.40;99.90;;;;;;5006462;28;20041;-65
2022/10/15 07:18:02;;;;;;;90.57;36.80;;;12.50;99.90;;;;;;5026963;28;20037;-66
2022/10/15 07:20:29;;;;;;;93.75;38.42;;;12.50;99.90;;;;;;5021858;28;20045;-66
2022/10/15 07:23:01;;;;;;;93.82;39.00;;;12.60;99.90;;;;;;5013751;28;20041;-66
2022/10/15 07:25:27;;;;;;;86.80;35.47;;;12.60;99.90;;;;;;5018658;28;20049;-66
2022/10/15 07:27:54;;;;;;;87.40;36.80;;;12.60;99.90;;;;;;5030227;28;20064;-66
2022/10/15 07:30:21;;;;;;;84.97;37.70;;;12.70;99.90;;;;;;5031109;28;20095;-66
2022/10/15 07:32:47;;;;;;;95.28;38.65;;;12.70;99.90;;;;;;5021579;28;20046;-66
2022/10/15 07:35:12;;;;;;;99.28;39.13;;;12.70;99.90;;;;;;5031057;28;20042;-66
2022/10/15 07:37:38;;;;;;;93.05;39.47;;;12.80;99.90;;;;;;5030965;28;20029;-65
2022/10/15 07:40:04;;;;;;;98.25;39.38;;;12.70;99.90;;;;;;5024720;28;20040;-66
2022/10/15 07:42:29;;;;;;;89.03;38.20;;;12.90;99.90;;;;;;5030654;28;20044;-66
2022/10/15 07:44:55;;;;;;;94.50;39.47;;;12.90;99.90;;;;;;5030763;28;20049;-66
2022/10/15 07:47:20;;;;;;;92.70;39.40;;;13.00;99.90;;;;;;5030919;28;20045;-66
2022/10/15 07:49:46;;;;;;;99.75;40.90;;;13.00;99.90;;;;;;5025110;28;20043;-65
2022/10/15 07:52:12;;;;;;;90.07;39.45;;;13.10;99.90;;;;;;5029186;28;20451;-66
2022/10/15 07:54:37;;;;;;;88.45;39.47;;;13.10;99.90;;;;;;5031804;28;20040;-66
2022/10/15 07:57:05;;;;;;;88.68;39.63;;;13.20;99.90;;;;;;5027586;28;20128;-66
2022/10/15 07:59:31;;;;;;;87.63;39.33;;;13.20;99.90;;;;;;5018643;28;20494;-66
2022/10/15 08:01:57;;;;;;;97.35;41.95;;;13.30;99.90;;;;;;5021766;28;20045;-66
2022/10/15 08:04:23;;;;;;;93.07;40.15;;;13.30;99.90;;;;;;5019128;28;20037;-65
2022/10/15 08:06:48;;;;;;;88.22;39.13;;;13.40;99.90;;;;;;5023693;28;20125;-65
2022/10/15 08:09:15;;;;;;;78.05;37.42;;;13.40;99.90;;;;;;5027071;28;20135;-64
2022/10/15 08:11:40;;;;;;;85.90;39.15;;;13.40;99.90;;;;;;5031162;28;20503;-64
2022/10/15 08:14:06;;;;;;;93.97;40.08;;;13.50;99.90;;;;;;5019565;28;20037;-64
2022/10/15 08:16:31;;;;;;;83.80;38.47;;;13.50;99.90;;;;;;5023210;28;20037;-64
2022/10/15 08:18:58;;;;;;;89.40;40.80;;;13.50;99.90;;;;;;5020444;28;20038;-62
2022/10/15 08:21:24;;;;;;;92.63;39.78;;;13.50;99.90;;;;;;5030010;28;20084;-64
2022/10/15 08:23:50;;;;;;;95.47;41.28;;;13.60;99.90;;;;;;5031431;28;20488;-64
2022/10/15 08:26:16;;;;;;;85.85;39.05;;;13.60;99.90;;;;;;5023281;28;20484;-64
2022/10/15 08:28:42;;;;;;;88.50;39.03;;;13.70;99.90;;;;;;5030305;28;20091;-64
2022/10/15 08:31:08;;;;;;;87.90;39.60;;;13.70;99.90;;;;;;5025699;28;20041;-64
2022/10/15 08:33:35;;;;;;;82.05;37.75;;;13.70;99.90;;;;;;5021904;28;20077;-64
2022/10/15 08:36:00;;;;;;;79.82;37.90;;;13.80;99.90;;;;;;5030367;28;20507;-64
2022/10/15 08:38:26;;;;;;;95.30;40.50;;;13.80;99.90;;;;;;5031253;28;20037;-64
2022/10/15 08:40:55;;;;;;;80.28;36.95;;;13.90;99.90;;;;;;5025781;28;20045;-63
2022/10/15 08:43:32;;;;;;;77.10;35.70;;;14.00;99.90;;;;;;5021095;28;20104;-64
2022/10/15 08:46:01;;;;;;;77.70;37.72;;;13.90;99.90;;;;;;5023464;28;20049;-62
2022/10/15 08:48:33;;;;;;;74.10;36.88;;;13.90;99.90;;;;;;5029205;28;20041;-64
2022/10/15 08:51:04;;;;;;;75.72;35.20;;;13.80;99.90;;;;;;5030465;28;20041;-64
2022/10/15 08:53:41;;;;;;;78.05;36.28;;;13.70;99.90;;;;;;5030803;28;20037;-64
2022/10/15 08:56:18;;;;;;;74.28;32.80;;;13.70;99.90;;;;;;5026627;28;20073;-64
2022/10/15 08:59:03;;;;;;;88.40;38.15;;;13.70;99.90;;;;;;5027202;28;20531;-64
2022/10/15 09:01:51;;;;;;;98.93;40.13;;;13.50;99.90;;;;;;5011071;28;20046;-64
2022/10/15 09:04:31;;;;;;;97.45;37.08;;;13.40;99.90;;;;;;5021786;28;20075;-64
2022/10/15 09:07:08;;;;;;;96.97;35.10;;;13.40;99.90;;;;;;5026895;28;20249;-61
2022/10/15 09:09:42;;;;;;;100.78;35.85;;;13.40;99.90;;;;;;5030985;28;20042;-64
2022/10/15 09:12:18;;;;;;;96.85;34.38;;;13.30;99.90;;;;;;5026074;28;20083;-64
2022/10/15 09:14:46;;;;;;;106.72;37.83;;;13.30;99.90;;;;;;5030614;28;20033;-64
2022/10/15 09:17:22;;;;;;;96.38;36.20;;;13.30;99.90;;;;;;5018692;28;20038;-64
2022/10/15 09:19:55;;;;;;;95.85;36.15;;;13.30;99.90;;;;;;5014688;28;20641;-64
2022/10/15 09:22:29;;;;;;;101.07;37.13;;;13.30;99.90;;;;;;5019385;28;20037;-64
2022/10/15 09:24:55;;;;;;;87.85;32.20;;;13.30;99.90;;;;;;5030225;28;20038;-65
2022/10/15 09:27:31;;;;;;;98.20;34.33;;;13.30;99.90;;;;;;5030921;28;20052;-63
2022/10/15 09:29:57;;;;;;;83.15;30.77;;;13.30;99.90;;;;;;5016819;28;20042;-63
2022/10/15 09:32:30;;;;;;;83.65;31.00;;;13.30;99.90;;;;;;5024125;28;20045;-65
2022/10/15 09:35:23;;;;;;;84.03;30.38;;;13.30;99.90;;;;;;5032876;28;20500;-64
2022/10/15 09:38:13;;;;;;;93.45;31.95;;;13.40;99.90;;;;;;5028530;28;20045;-64
2022/10/15 09:40:55;;;;;;;92.18;32.10;;;13.40;99.90;;;;;;5021485;28;20041;-63
2022/10/15 09:43:30;;;;;;;79.47;30.13;;;13.50;99.90;;;;;;5018902;28;20372;-64
2022/10/15 09:45:57;;;;;;;84.38;30.08;;;13.50;99.90;;;;;;5026002;28;20076;-63
2022/10/15 09:48:24;;;;;;;90.93;31.52;;;13.60;99.90;;;;;;5026695;28;20038;-64
2022/10/15 09:50:59;;;;;;;88.50;31.27;;;13.60;99.90;;;;;;5022499;28;20607;-64
2022/10/15 09:53:45;;;;;;;80.72;29.67;;;13.60;99.90;;;;;;5021109;28;20104;-64
2022/10/15 09:56:28;;;;;;;94.80;31.27;;;13.70;99.90;;;;;;5019116;28;20504;-64
2022/10/15 09:58:56;;;;;;;74.45;29.70;;;13.80;99.90;;;;;;5022162;28;20088;-64
2022/10/15 10:01:23;;;;;;;64.00;26.20;;;13.80;99.90;;;;;;5033777;28;20107;-65
2022/10/15 10:04:10;;;;;;;76.78;29.50;;;13.90;99.90;;;;;;5029835;28;20392;-63
2022/10/15 10:06:50;;;;;;;71.32;28.17;;;14.00;99.90;;;;;;5026760;28;20316;-64
2022/10/15 10:09:19;;;;;;;64.93;26.70;;;14.30;99.90;;;;;;5027388;28;20471;-65
2022/10/15 10:11:54;;;;;;;60.55;25.75;;;14.50;99.90;;;;;;5025656;28;20044;-63
2022/10/15 10:14:32;;;;;;;57.85;25.50;;;14.70;99.90;;;;;;5032953;28;20025;-64
2022/10/15 10:17:05;;;;;;;56.25;25.42;;;14.70;99.90;;;;;;5033438;28;20045;-64
2022/10/15 10:19:31;;;;;;;52.90;25.17;;;14.80;99.90;;;;;;5028579;28;20065;-63
2022/10/15 10:22:16;;;;;;;50.00;23.25;;;15.00;99.90;;;;;;5032754;28;20061;-64
2022/10/15 10:24:42;;;;;;;43.75;21.98;;;15.00;99.90;;;;;;5014253;28;20041;-64
2022/10/15 10:27:20;;;;;;;42.53;22.15;;;15.00;99.90;;;;;;5016479;28;20046;-64
2022/10/15 10:30:05;;;;;;;41.97;21.90;;;15.10;99.90;;;;;;5033047;28;20084;-65
2022/10/15 10:32:33;;;;;;;44.53;23.98;;;15.20;99.90;;;;;;5013038;28;20048;-63
2022/10/15 10:35:00;;;;;;;43.63;22.33;;;15.40;99.90;;;;;;5015837;28;20042;-63
2022/10/15 10:37:26;;;;;;;45.97;23.10;;;15.50;99.90;;;;;;5032546;28;20029;-63
2022/10/15 10:39:58;;;;;;;45.00;21.85;;;15.60;99.90;;;;;;5029491;28;20052;-64
2022/10/15 10:42:29;;;;;;;39.83;22.13;;;15.50;99.90;;;;;;5027119;28;20381;-63
2022/10/15 10:45:05;;;;;;;37.65;21.13;;;15.50;99.90;;;;;;5029379;28;20053;-64
2022/10/15 10:47:37;;;;;;;37.40;21.42;;;15.60;99.90;;;;;;5017447;28;20029;-64
2022/10/15 10:50:02;;;;;;;;;;;15.60;99.90;;;;;;5031290;28;20041;-61
2022/10/15 10:52:34;;;;;;;37.13;18.83;;;15.70;99.90;;;;;;5032662;28;19925;-61
2022/10/15 10:55:06;;;;;;;32.90;19.58;;;15.80;99.90;;;;;;5024073;28;20408;-62
2022/10/15 10:57:44;;;;;;;32.63;19.20;;;15.90;99.90;;;;;;5017395;28;20040;-61
2022/10/15 11:00:17;;;;;;;32.35;17.42;;;15.90;99.90;;;;;;5020866;28;20740;-61
2022/10/15 11:02:43;;;;;;;31.35;18.17;;;15.90;99.90;;;;;;5018389;28;20044;-61
2022/10/15 11:05:10;;;;;;;29.88;19.42;;;15.80;99.90;;;;;;5032480;28;20037;-61
2022/10/15 11:07:42;;;;;;;32.78;18.50;;;15.60;99.90;;;;;;5032387;28;20045;-64
2022/10/15 11:10:28;;;;;;;33.30;19.38;;;15.50;99.90;;;;;;5020242;28;20048;-62
2022/10/15 11:13:13;;;;;;;33.05;18.85;;;15.50;99.90;;;;;;5031067;28;20107;-62
2022/10/15 11:16:21;;;;;;;31.08;18.23;;;15.50;99.90;;;;;;5026627;28;20037;-61
2022/10/15 11:19:12;;;;;;;31.13;18.75;;;15.60;99.90;;;;;;4988604;28;20075;-62
2022/10/15 11:22:03;;;;;;;30.35;18.48;;;15.50;99.90;;;;;;5026195;28;20045;-61
2022/10/15 11:24:41;;;;;;;32.27;19.70;;;15.50;99.90;;;;;;5032317;28;20503;-62
2022/10/15 11:27:21;;;;;;;33.95;18.80;;;15.50;99.90;;;;;;5016541;28;20304;-61
2022/10/15 11:29:53;;;;;;;34.00;18.60;;;15.60;99.90;;;;;;5025894;28;20391;-63
2022/10/15 11:32:32;;;;;;;29.40;18.00;;;15.70;99.90;;;;;;5028180;28;20496;-64
2022/10/15 11:35:36;;;;;;;34.42;19.25;;;15.70;99.90;;;;;;5020577;28;20046;-62
2022/10/15 11:38:39;;;;;;;28.60;17.58;;;15.80;99.90;;;;;;5013707;28;20143;-61
2022/10/15 11:41:11;;;;;;;28.40;17.48;;;15.80;99.90;;;;;;5031551;28;20408;-62
2022/10/15 11:43:54;;;;;;;33.22;18.77;;;15.70;99.90;;;;;;5022194;28;20091;-61
2022/10/15 11:46:41;;;;;;;33.88;20.48;;;15.80;99.90;;;;;;5030501;28;20040;-61
2022/10/15 11:49:48;;;;;;;33.15;18.08;;;15.80;99.90;;;;;;5027685;28;20480;-61
2022/10/15 11:52:42;;;;;;;31.13;19.42;;;15.80;99.90;;;;;;4999430;28;20053;-61
2022/10/15 11:55:16;;;;;;;35.47;20.40;;;15.90;99.90;;;;;;5031845;28;20045;-62
2022/10/15 11:57:44;;;;;;;32.05;18.63;;;16.10;99.90;;;;;;5025381;28;20047;-62
2022/10/15 12:00:19;;;;;;;33.42;18.30;;;16.10;99.90;;;;;;5029574;28;20065;-63
2022/10/15 12:02:47;;;;;;;29.65;17.63;;;16.20;99.90;;;;;;5030814;28;20041;-61
2022/10/15 12:05:35;;;;;;;33.00;17.85;;;16.10;99.90;;;;;;5030831;28;20041;-61
2022/10/15 12:08:01;;;;;;;26.77;16.02;;;16.10;99.90;;;;;;5026820;28;20088;-61
2022/10/15 12:10:57;;;;;;;27.60;17.15;;;16.10;99.90;;;;;;5030388;28;20073;-63
2022/10/15 12:13:45;;;;;;;29.20;16.85;;;16.00;99.90;;;;;;5031282;28;20053;-62
2022/10/15 12:16:15;;;;;;;29.60;17.55;;;16.00;99.90;;;;;;5026272;28;20400;-63
2022/10/15 12:19:00;;;;;;;34.22;18.25;;;16.00;99.90;;;;;;5030878;28;20041;-62
2022/10/15 12:21:37;;;;;;;32.67;17.60;;;16.10;99.90;;;;;;5022847;28;20725;-62
2022/10/15 12:24:09;;;;;;;37.72;18.20;;;16.10;99.90;;;;;;5019671;28;20078;-62
2022/10/15 12:26:35;;;;;;;34.05;18.73;;;16.10;99.90;;;;;;5030614;28;20496;-63
2022/10/15 12:29:05;;;;;;;37.05;19.17;;;16.10;99.90;;;;;;5031430;28;20068;-62
2022/10/15 12:31:50;;;;;;;32.95;18.27;;;16.20;99.90;;;;;;5026742;28;20029;-63
2022/10/15 12:34:40;;;;;;;31.45;18.20;;;16.20;99.90;;;;;;5019747;28;20029;-62
2022/10/15 12:37:16;;;;;;;32.03;18.50;;;16.10;99.90;;;;;;5023432;28;20484;-62
2022/10/15 12:39:43;;;;;;;34.10;18.67;;;16.10;99.90;;;;;;5021961;28;20085;-62
2022/10/15 12:42:32;;;;;;;37.80;18.77;;;16.00;99.90;;;;;;5028080;28;20076;-64